createdAt,value
2017-07-31T00:00:48.610Z,64.2
2017-07-31T00:01:48.327Z,63.91
2017-07-31T00:02:48.671Z,64.2
2017-07-31T00:03:48.700Z,64.2
2017-07-31T00:04:48.421Z,64.01
2017-07-31T00:05:48.447Z,63.71
2017-07-31T00:06:48.481Z,64.01
2017-07-31T00:07:48.821Z,64.4
2017-07-31T00:08:48.845Z,64.36
2017-07-31T00:09:48.877Z,64.4
2017-07-31T00:10:48.911Z,64.59
2017-07-31T00:11:48.627Z,64.36
2017-07-31T00:12:48.652Z,64.4
2017-07-31T00:13:49.298Z,64.4
2017-07-31T00:14:49.022Z,64.2
2017-07-31T00:15:48.746Z,63.81
2017-07-31T00:16:49.085Z,64.11
2017-07-31T00:17:49.111Z,63.81
2017-07-31T00:18:49.133Z,63.81
2017-07-31T00:19:49.185Z,64.01
2017-07-31T00:20:48.887Z,63.71
2017-07-31T00:21:49.235Z,63.62
2017-07-31T00:22:49.260Z,63.32
2017-07-31T00:23:49.282Z,63.52
2017-07-31T00:24:49.005Z,63.29
2017-07-31T00:25:49.346Z,63.2
2017-07-31T00:26:49.065Z,63.81
2017-07-31T00:27:49.095Z,63.52
2017-07-31T00:28:49.685Z,64.2
2017-07-31T00:29:49.457Z,64.07
2017-07-31T00:30:49.181Z,63.71
2017-07-31T00:31:49.525Z,63.78
2017-07-31T00:32:49.552Z,63.88
2017-07-31T00:33:49.520Z,63.59
2017-07-31T00:34:49.298Z,64.07
2017-07-31T00:35:49.326Z,63.78
2017-07-31T00:36:49.354Z,63.88
2017-07-31T00:37:49.697Z,64.2
2017-07-31T00:38:49.976Z,64.17
2017-07-31T00:39:49.751Z,63.88
2017-07-31T00:40:49.471Z,64.17
2017-07-31T00:41:49.808Z,64.59
2017-07-31T00:42:49.533Z,64.65
2017-07-31T00:43:49.809Z,64.17
2017-07-31T00:44:49.590Z,64.46
2017-07-31T00:45:49.930Z,64.46
2017-07-31T00:46:49.959Z,64.36
2017-07-31T00:47:49.676Z,64.17
2017-07-31T00:48:50.273Z,64.46
2017-07-31T00:49:50.046Z,64.11
2017-07-31T00:50:49.758Z,64.36
2017-07-31T00:51:50.100Z,64.46
2017-07-31T00:52:50.133Z,64.69
2017-07-31T00:53:50.418Z,64.26
2017-07-31T00:54:50.190Z,64.46
2017-07-31T00:55:50.222Z,64.88
2017-07-31T00:56:50.247Z,64.01
2017-07-31T00:57:49.970Z,64.95
2017-07-31T00:58:49.998Z,64.59
2017-07-31T00:59:50.027Z,64.88
2017-07-31T01:00:50.367Z,64.56
2017-07-31T01:01:50.396Z,64.85
2017-07-31T01:02:50.116Z,64.56
2017-07-31T01:03:50.449Z,64.17
2017-07-31T01:04:50.486Z,64.85
2017-07-31T01:05:50.201Z,64.26
2017-07-31T01:06:50.228Z,64.36
2017-07-31T01:07:50.261Z,64.65
2017-07-31T01:08:50.606Z,64.17
2017-07-31T01:09:50.624Z,64.46
2017-07-31T01:10:50.651Z,64.75
2017-07-31T01:11:50.687Z,64.07
2017-07-31T01:12:50.396Z,64.65
2017-07-31T01:13:50.741Z,64.75
2017-07-31T01:14:50.462Z,64.46
2017-07-31T01:15:50.516Z,64.85
2017-07-31T01:16:50.828Z,63.88
2017-07-31T01:17:50.549Z,65.05
2017-07-31T01:18:50.577Z,64.85
2017-07-31T01:19:50.914Z,64.75
2017-07-31T01:20:50.950Z,64.75
2017-07-31T01:21:50.664Z,64.75
2017-07-31T01:22:50.691Z,65.05
2017-07-31T01:23:50.721Z,64.65
2017-07-31T01:24:51.067Z,64.65
2017-07-31T01:25:50.783Z,65.05
2017-07-31T01:26:50.812Z,64.85
2017-07-31T01:27:51.160Z,64.65
2017-07-31T01:28:50.869Z,64.75
2017-07-31T01:29:51.214Z,64.46
2017-07-31T01:30:50.927Z,64.07
2017-07-31T01:31:50.956Z,64.95
2017-07-31T01:32:50.985Z,64.75
2017-07-31T01:33:51.018Z,64.26
2017-07-31T01:34:51.613Z,64.75
2017-07-31T01:35:51.383Z,63.98
2017-07-31T01:36:51.419Z,65.05
2017-07-31T01:37:51.133Z,64.56
2017-07-31T01:38:51.474Z,65.05
2017-07-31T01:39:51.435Z,64.95
2017-07-31T01:40:51.220Z,64.65
2017-07-31T01:41:51.562Z,65.05
2017-07-31T01:42:51.278Z,64.65
2017-07-31T01:43:51.305Z,65.24
2017-07-31T01:44:51.589Z,65.14
2017-07-31T01:45:51.374Z,64.56
2017-07-31T01:46:51.704Z,65.24
2017-07-31T01:47:51.447Z,64.26
2017-07-31T01:48:51.451Z,65.24
2017-07-31T01:49:51.778Z,64.85
2017-07-31T01:50:51.503Z,64.95
2017-07-31T01:51:51.540Z,64.07
2017-07-31T01:52:51.872Z,64.17
2017-07-31T01:53:51.594Z,64.65
2017-07-31T01:54:51.922Z,64.65
2017-07-31T01:55:51.652Z,65.33
2017-07-31T01:56:51.680Z,64.65
2017-07-31T01:57:51.713Z,64.56
2017-07-31T01:58:52.054Z,64.17
2017-07-31T01:59:52.080Z,63.88
2017-07-31T02:00:52.113Z,64.85
2017-07-31T02:01:51.821Z,65.24
2017-07-31T02:02:51.862Z,64.36
2017-07-31T02:03:51.886Z,63.88
2017-07-31T02:04:52.471Z,65.33
2017-07-31T02:05:51.944Z,64.36
2017-07-31T02:06:52.281Z,63.78
2017-07-31T02:07:52.002Z,64.46
2017-07-31T02:08:52.346Z,64.75
2017-07-31T02:09:52.672Z,64.65
2017-07-31T02:10:52.403Z,64.85
2017-07-31T02:11:52.429Z,64.07
2017-07-31T02:12:52.457Z,64.85
2017-07-31T02:13:52.171Z,64.75
2017-07-31T02:14:52.451Z,64.85
2017-07-31T02:15:52.544Z,64.75
2017-07-31T02:16:52.264Z,64.75
2017-07-31T02:17:52.292Z,64.07
2017-07-31T02:18:52.323Z,64.85
2017-07-31T02:19:52.599Z,64.75
2017-07-31T02:20:52.376Z,64.46
2017-07-31T02:21:52.739Z,64.75
2017-07-31T02:22:52.755Z,63.98
2017-07-31T02:23:52.458Z,64.56
2017-07-31T02:24:52.743Z,64.07
2017-07-31T02:25:52.828Z,64.65
2017-07-31T02:26:52.553Z,64.17
2017-07-31T02:27:52.890Z,64.36
2017-07-31T02:28:52.934Z,64.07
2017-07-31T02:29:53.250Z,64.75
2017-07-31T02:30:52.669Z,64.46
2017-07-31T02:31:52.697Z,64.36
2017-07-31T02:32:52.730Z,64.56
2017-07-31T02:33:53.066Z,64.85
2017-07-31T02:34:52.784Z,64.75
2017-07-31T02:35:53.124Z,64.26
2017-07-31T02:36:52.850Z,64.07
2017-07-31T02:37:53.238Z,64.26
2017-07-31T02:38:52.899Z,64.33
2017-07-31T02:39:53.235Z,64.72
2017-07-31T02:40:53.270Z,64.65
2017-07-31T02:41:52.990Z,64.46
2017-07-31T02:42:53.022Z,64.36
2017-07-31T02:43:53.043Z,64.17
2017-07-31T02:44:53.374Z,64.17
2017-07-31T02:45:53.093Z,63.88
2017-07-31T02:46:53.130Z,63.68
2017-07-31T02:47:53.158Z,64.17
2017-07-31T02:48:53.191Z,64.04
2017-07-31T02:49:53.525Z,64.14
2017-07-31T02:50:53.248Z,63.95
2017-07-31T02:51:53.589Z,63.26
2017-07-31T02:52:53.302Z,63.56
2017-07-31T02:53:53.643Z,63.07
2017-07-31T02:54:53.677Z,63.46
2017-07-31T02:55:53.388Z,62.98
2017-07-31T02:56:53.733Z,62.98
2017-07-31T02:57:53.759Z,63.36
2017-07-31T02:58:53.792Z,63.07
2017-07-31T02:59:53.503Z,63.46
2017-07-31T03:00:53.856Z,63.46
2017-07-31T03:01:53.872Z,63.26
2017-07-31T03:02:53.902Z,63.46
2017-07-31T03:03:53.611Z,64.04
2017-07-31T03:04:53.960Z,63.95
2017-07-31T03:05:53.989Z,63.95
2017-07-31T03:06:54.023Z,63.95
2017-07-31T03:07:54.053Z,63.85
2017-07-31T03:08:54.080Z,63.46
2017-07-31T03:09:53.790Z,63.56
2017-07-31T03:10:54.072Z,63.17
2017-07-31T03:11:54.165Z,63.65
2017-07-31T03:12:54.190Z,63.26
2017-07-31T03:13:53.909Z,63.46
2017-07-31T03:14:54.252Z,63.26
2017-07-31T03:15:54.528Z,63.26
2017-07-31T03:16:54.305Z,63.36
2017-07-31T03:17:54.333Z,63.17
2017-07-31T03:18:54.371Z,63.17
2017-07-31T03:19:54.399Z,63.26
2017-07-31T03:20:54.365Z,63.07
2017-07-31T03:21:54.142Z,63.36
2017-07-31T03:22:54.483Z,62.98
2017-07-31T03:23:54.199Z,62.98
2017-07-31T03:24:54.544Z,63.36
2017-07-31T03:25:54.825Z,63.17
2017-07-31T03:26:54.286Z,62.88
2017-07-31T03:27:54.307Z,63.17
2017-07-31T03:28:54.343Z,63.46
2017-07-31T03:29:54.372Z,63.17
2017-07-31T03:30:54.653Z,63.17
2017-07-31T03:31:54.430Z,63.36
2017-07-31T03:32:54.455Z,63.17
2017-07-31T03:33:54.799Z,62.98
2017-07-31T03:34:54.517Z,63.17
2017-07-31T03:35:54.797Z,63.56
2017-07-31T03:36:54.882Z,63.56
2017-07-31T03:37:54.603Z,63.56
2017-07-31T03:38:54.626Z,63.36
2017-07-31T03:39:54.661Z,63.26
2017-07-31T03:40:55.252Z,63.46
2017-07-31T03:41:54.714Z,63.36
2017-07-31T03:42:55.063Z,63.26
2017-07-31T03:43:55.088Z,63.26
2017-07-31T03:44:55.116Z,63.36
2017-07-31T03:45:54.833Z,63.36
2017-07-31T03:46:55.174Z,63.26
2017-07-31T03:47:54.891Z,63.26
2017-07-31T03:48:55.232Z,63.46
2017-07-31T03:49:55.255Z,63.65
2017-07-31T03:50:54.974Z,63.26
2017-07-31T03:51:55.010Z,63.65
2017-07-31T03:52:55.031Z,63.46
2017-07-31T03:53:55.371Z,63.56
2017-07-31T03:54:55.399Z,63.17
2017-07-31T03:55:55.425Z,63.26
2017-07-31T03:56:55.151Z,63.26
2017-07-31T03:57:55.487Z,63.07
2017-07-31T03:58:55.207Z,62.98
2017-07-31T03:59:55.549Z,62.68
2017-07-31T04:00:55.568Z,62.98
2017-07-31T04:01:55.287Z,62.78
2017-07-31T04:02:55.635Z,62.78
2017-07-31T04:03:55.662Z,62.59
2017-07-31T04:04:55.377Z,62.88
2017-07-31T04:05:55.718Z,63.17
2017-07-31T04:06:55.438Z,62.88
2017-07-31T04:07:55.779Z,62.68
2017-07-31T04:08:55.799Z,63.07
2017-07-31T04:09:55.525Z,62.98
2017-07-31T04:10:55.553Z,63.17
2017-07-31T04:11:55.579Z,63.26
2017-07-31T04:12:55.607Z,63.07
2017-07-31T04:13:55.952Z,63.26
2017-07-31T04:14:55.977Z,63.26
2017-07-31T04:15:56.009Z,62.78
2017-07-31T04:16:55.724Z,62.68
2017-07-31T04:17:56.054Z,62.78
2017-07-31T04:18:55.780Z,62.78
2017-07-31T04:19:56.121Z,62.68
2017-07-31T04:20:56.151Z,62.68
2017-07-31T04:21:56.192Z,62.68
2017-07-31T04:22:56.209Z,62.68
2017-07-31T04:23:55.931Z,62.78
2017-07-31T04:24:55.951Z,62.88
2017-07-31T04:25:55.980Z,62.98
2017-07-31T04:26:56.327Z,62.68
2017-07-31T04:27:56.357Z,62.68
2017-07-31T04:28:56.378Z,63.07
2017-07-31T04:29:56.107Z,63.07
2017-07-31T04:30:56.130Z,62.98
2017-07-31T04:31:56.159Z,62.49
2017-07-31T04:32:56.192Z,62.78
2017-07-31T04:33:56.516Z,62.16
2017-07-31T04:34:56.553Z,62.39
2017-07-31T04:35:56.272Z,62.68
2017-07-31T04:36:56.300Z,62.39
2017-07-31T04:37:56.330Z,63.04
2017-07-31T04:38:56.661Z,63.07
2017-07-31T04:39:56.705Z,62.88
2017-07-31T04:40:56.418Z,63.26
2017-07-31T04:41:56.755Z,63.13
2017-07-31T04:42:56.471Z,62.88
2017-07-31T04:43:56.820Z,62.85
2017-07-31T04:44:56.525Z,62.98
2017-07-31T04:45:56.562Z,63.13
2017-07-31T04:46:56.582Z,63.07
2017-07-31T04:47:56.923Z,62.78
2017-07-31T04:48:56.960Z,62.98
2017-07-31T04:49:56.673Z,62.75
2017-07-31T04:50:56.703Z,62.36
2017-07-31T04:51:56.730Z,63.07
2017-07-31T04:52:57.065Z,62.65
2017-07-31T04:53:57.096Z,62.36
2017-07-31T04:54:56.812Z,62.29
2017-07-31T04:55:57.159Z,62.39
2017-07-31T04:56:57.187Z,62.29
2017-07-31T04:57:57.216Z,62.19
2017-07-31T04:58:57.244Z,61.91
2017-07-31T04:59:56.962Z,62.1
2017-07-31T05:00:57.301Z,62.78
2017-07-31T05:01:57.023Z,62.68
2017-07-31T05:02:57.049Z,62.46
2017-07-31T05:03:57.078Z,62.39
2017-07-31T05:04:57.106Z,62.19
2017-07-31T05:05:57.130Z,62.68
2017-07-31T05:06:57.481Z,62.98
2017-07-31T05:07:57.505Z,62.98
2017-07-31T05:08:57.221Z,63.36
2017-07-31T05:09:57.562Z,62.68
2017-07-31T05:10:57.279Z,61.91
2017-07-31T05:11:57.615Z,62.29
2017-07-31T05:12:57.648Z,62.59
2017-07-31T05:13:57.366Z,62.19
2017-07-31T05:14:57.706Z,62.78
2017-07-31T05:15:57.423Z,62.49
2017-07-31T05:16:57.448Z,62.59
2017-07-31T05:17:57.477Z,62.39
2017-07-31T05:18:57.510Z,62.01
2017-07-31T05:19:57.538Z,62.01
2017-07-31T05:20:57.577Z,61.81
2017-07-31T05:21:57.586Z,61.91
2017-07-31T05:22:57.932Z,62.1
2017-07-31T05:23:57.964Z,62.29
2017-07-31T05:24:57.990Z,62.1
2017-07-31T05:25:57.702Z,62.1
2017-07-31T05:26:57.988Z,62.19
2017-07-31T05:27:57.764Z,61.91
2017-07-31T05:28:57.794Z,62.39
2017-07-31T05:29:57.822Z,62.19
2017-07-31T05:30:57.856Z,62.01
2017-07-31T05:31:58.180Z,62.1
2017-07-31T05:32:57.908Z,62.39
2017-07-31T05:33:57.942Z,62.1
2017-07-31T05:34:57.965Z,62.39
2017-07-31T05:35:57.995Z,62.39
2017-07-31T05:36:58.585Z,62.19
2017-07-31T05:37:58.365Z,62.19
2017-07-31T05:38:58.393Z,62.39
2017-07-31T05:39:58.118Z,62.19
2017-07-31T05:40:58.451Z,62.19
2017-07-31T05:41:58.834Z,62.29
2017-07-31T05:42:58.511Z,62.49
2017-07-31T05:43:58.540Z,62.01
2017-07-31T05:44:58.254Z,62.19
2017-07-31T05:45:58.283Z,62.19
2017-07-31T05:46:58.609Z,62.39
2017-07-31T05:47:58.341Z,62.49
2017-07-31T05:48:58.369Z,62.19
2017-07-31T05:49:58.712Z,62.19
2017-07-31T05:50:58.428Z,61.71
2017-07-31T05:51:58.709Z,61.91
2017-07-31T05:52:58.801Z,61.81
2017-07-31T05:53:58.513Z,61.91
2017-07-31T05:54:58.543Z,61.61
2017-07-31T05:55:58.883Z,61.81
2017-07-31T05:56:59.164Z,61.71
2017-07-31T05:57:58.940Z,61.71
2017-07-31T05:58:58.970Z,61.74
2017-07-31T05:59:58.687Z,62.01
2017-07-31T06:00:58.716Z,61.52
2017-07-31T06:01:59.056Z,61.42
2017-07-31T06:02:59.081Z,61.71
2017-07-31T06:03:59.114Z,61.74
2017-07-31T06:04:58.833Z,61.45
2017-07-31T06:05:59.176Z,62.32
2017-07-31T06:06:58.889Z,62.13
2017-07-31T06:07:59.237Z,61.74
2017-07-31T06:08:59.258Z,62.1
2017-07-31T06:09:59.287Z,61.74
2017-07-31T06:10:59.316Z,61.55
2017-07-31T06:11:59.033Z,61.65
2017-07-31T06:12:59.373Z,61.65
2017-07-31T06:13:59.086Z,61.74
2017-07-31T06:14:59.119Z,61.94
2017-07-31T06:15:59.148Z,61.25
2017-07-31T06:16:59.488Z,60.97
2017-07-31T06:17:59.205Z,61.07
2017-07-31T06:18:59.549Z,61.16
2017-07-31T06:19:59.262Z,61.07
2017-07-31T06:20:59.630Z,60.97
2017-07-31T06:21:59.320Z,61.07
2017-07-31T06:22:59.662Z,61.25
2017-07-31T06:23:59.686Z,60.87
2017-07-31T06:24:59.724Z,61.25
2017-07-31T06:25:59.760Z,61.45
2017-07-31T06:26:59.476Z,61.35
2017-07-31T06:27:59.497Z,61.35
2017-07-31T06:28:59.526Z,60.97
2017-07-31T06:29:59.555Z,60.58
2017-07-31T06:30:59.897Z,60.97
2017-07-31T06:31:59.925Z,60.68
2017-07-31T06:32:59.953Z,60.87
2017-07-31T06:33:59.982Z,60.77
2017-07-31T06:35:00.016Z,60.38
2017-07-31T06:36:00.064Z,60.68
2017-07-31T06:37:00.062Z,60.38
2017-07-31T06:38:00.097Z,60.48
2017-07-31T06:39:00.122Z,60.48
2017-07-31T06:39:59.843Z,60.48
2017-07-31T06:41:00.184Z,60.19
2017-07-31T06:42:00.212Z,60.41
2017-07-31T06:42:59.930Z,60
2017-07-31T06:44:00.270Z,59.7
2017-07-31T06:45:00.301Z,59.74
2017-07-31T06:46:00.017Z,59.44
2017-07-31T06:47:00.044Z,59.54
2017-07-31T06:48:00.079Z,59.44
2017-07-31T06:49:00.105Z,59.05
2017-07-31T06:50:00.450Z,59.34
2017-07-31T06:51:00.476Z,59.34
2017-07-31T06:52:00.194Z,59.25
2017-07-31T06:53:00.223Z,59.25
2017-07-31T06:54:00.247Z,58.95
2017-07-31T06:55:00.280Z,59.25
2017-07-31T06:56:00.612Z,59.25
2017-07-31T06:57:00.648Z,59.44
2017-07-31T06:58:00.368Z,58.64
2017-07-31T06:59:00.710Z,58.76
2017-07-31T07:00:00.423Z,58.73
2017-07-31T07:01:00.774Z,58.76
2017-07-31T07:02:00.481Z,59.34
2017-07-31T07:03:00.514Z,59.34
2017-07-31T07:04:00.851Z,59.22
2017-07-31T07:05:00.570Z,58.93
2017-07-31T07:06:00.601Z,59.25
2017-07-31T07:07:00.952Z,59.25
2017-07-31T07:08:00.971Z,59.25
2017-07-31T07:09:01.000Z,59.15
2017-07-31T07:10:01.023Z,58.76
2017-07-31T07:11:01.063Z,58.67
2017-07-31T07:12:00.776Z,58.76
2017-07-31T07:13:01.121Z,58.86
2017-07-31T07:14:01.140Z,58.76
2017-07-31T07:15:01.178Z,58.57
2017-07-31T07:16:01.201Z,57.79
2017-07-31T07:17:01.240Z,57.98
2017-07-31T07:18:01.259Z,58.18
2017-07-31T07:19:01.292Z,58.18
2017-07-31T07:20:01.008Z,58.47
2017-07-31T07:21:01.036Z,58.18
2017-07-31T07:22:01.066Z,58.08
2017-07-31T07:23:01.093Z,57.98
2017-07-31T07:24:01.125Z,57.89
2017-07-31T07:25:01.151Z,58.31
2017-07-31T07:26:01.180Z,58.08
2017-07-31T07:27:01.518Z,57.5
2017-07-31T07:28:01.242Z,57.31
2017-07-31T07:29:01.584Z,57.6
2017-07-31T07:30:01.610Z,57.31
2017-07-31T07:31:01.329Z,57.33
2017-07-31T07:32:01.353Z,57.43
2017-07-31T07:33:01.638Z,57.04
2017-07-31T07:34:01.417Z,57.23
2017-07-31T07:35:01.761Z,56.85
2017-07-31T07:36:01.789Z,56.85
2017-07-31T07:37:01.820Z,56.85
2017-07-31T07:38:01.782Z,56.56
2017-07-31T07:39:01.876Z,56.46
2017-07-31T07:40:01.905Z,56.95
2017-07-31T07:41:01.621Z,56.85
2017-07-31T07:42:01.963Z,57.04
2017-07-31T07:43:01.931Z,56.65
2017-07-31T07:44:02.015Z,56.36
2017-07-31T07:45:02.049Z,56.36
2017-07-31T07:46:01.770Z,56.46
2017-07-31T07:47:02.107Z,55.98
2017-07-31T07:48:02.125Z,56.36
2017-07-31T07:49:01.856Z,56.16
2017-07-31T07:50:01.885Z,56.36
2017-07-31T07:51:01.913Z,56.07
2017-07-31T07:52:01.946Z,56.26
2017-07-31T07:53:02.275Z,56.26
2017-07-31T07:54:02.319Z,56.07
2017-07-31T07:55:02.341Z,56.07
2017-07-31T07:56:02.378Z,56.65
2017-07-31T07:57:02.083Z,56.26
2017-07-31T07:58:02.735Z,55.78
2017-07-31T07:59:02.152Z,55.29
2017-07-31T08:00:02.493Z,55.68
2017-07-31T08:01:02.518Z,55.58
2017-07-31T08:02:02.563Z,55.98
2017-07-31T08:03:02.831Z,55.68
2017-07-31T08:04:02.297Z,55.29
2017-07-31T08:05:02.635Z,55.39
2017-07-31T08:06:02.662Z,55.19
2017-07-31T08:07:02.382Z,55.39
2017-07-31T08:08:02.977Z,55.1
2017-07-31T08:09:02.445Z,55.1
2017-07-31T08:10:02.784Z,55.19
2017-07-31T08:11:02.543Z,55.29
2017-07-31T08:12:02.839Z,55.1
2017-07-31T08:13:02.811Z,54.61
2017-07-31T08:14:02.916Z,54.61
2017-07-31T08:15:02.617Z,55.19
2017-07-31T08:16:02.646Z,54.61
2017-07-31T08:17:02.683Z,54.9
2017-07-31T08:18:03.261Z,54.61
2017-07-31T08:19:02.736Z,54.71
2017-07-31T08:20:02.757Z,54.42
2017-07-31T08:21:02.797Z,54.22
2017-07-31T08:22:02.837Z,54.32
2017-07-31T08:23:03.423Z,54.32
2017-07-31T08:24:02.884Z,54.42
2017-07-31T08:25:02.916Z,54.22
2017-07-31T08:26:02.943Z,53.83
2017-07-31T08:27:02.973Z,53.74
2017-07-31T08:28:03.010Z,53.64
2017-07-31T08:29:03.037Z,53.93
2017-07-31T08:30:03.378Z,54.32
2017-07-31T08:31:03.091Z,54.22
2017-07-31T08:32:03.431Z,54.42
2017-07-31T08:33:03.464Z,54.13
2017-07-31T08:34:03.491Z,54.22
2017-07-31T08:35:03.514Z,54.03
2017-07-31T08:36:03.577Z,53.16
2017-07-31T08:37:03.583Z,53.35
2017-07-31T08:38:03.612Z,54.03
2017-07-31T08:39:03.641Z,54.13
2017-07-31T08:40:03.673Z,53.93
2017-07-31T08:41:03.700Z,53.35
2017-07-31T08:42:03.727Z,53.16
2017-07-31T08:43:03.754Z,53.25
2017-07-31T08:44:03.478Z,53.54
2017-07-31T08:45:03.813Z,53.83
2017-07-31T08:46:03.532Z,53.74
2017-07-31T08:47:03.566Z,53.83
2017-07-31T08:48:03.904Z,54.22
2017-07-31T08:49:03.620Z,53.45
2017-07-31T08:50:03.650Z,53.64
2017-07-31T08:51:03.689Z,52.96
2017-07-31T08:52:04.012Z,53.74
2017-07-31T08:53:03.740Z,53.64
2017-07-31T08:54:04.333Z,53.45
2017-07-31T08:55:04.110Z,53.93
2017-07-31T08:56:03.830Z,53.45
2017-07-31T08:57:03.854Z,53.93
2017-07-31T08:58:04.196Z,53.83
2017-07-31T08:59:04.527Z,53.35
2017-07-31T09:00:04.261Z,53.54
2017-07-31T09:01:03.974Z,53.64
2017-07-31T09:02:04.003Z,53.64
2017-07-31T09:03:04.351Z,53.35
2017-07-31T09:04:04.677Z,52.98
2017-07-31T09:05:04.094Z,53.35
2017-07-31T09:06:04.120Z,53.93
2017-07-31T09:07:04.464Z,53.64
2017-07-31T09:08:04.497Z,53.96
2017-07-31T09:09:04.504Z,53.74
2017-07-31T09:10:04.551Z,53.74
2017-07-31T09:11:04.269Z,53.64
2017-07-31T09:12:04.611Z,53.96
2017-07-31T09:13:04.327Z,53.93
2017-07-31T09:14:04.969Z,53.93
2017-07-31T09:15:04.706Z,53.86
2017-07-31T09:16:04.418Z,53.83
2017-07-31T09:17:04.451Z,53.96
2017-07-31T09:18:04.484Z,53.54
2017-07-31T09:19:05.065Z,53.67
2017-07-31T09:20:04.846Z,53.06
2017-07-31T09:21:04.578Z,53.57
2017-07-31T09:22:04.915Z,53.64
2017-07-31T09:23:04.933Z,53.54
2017-07-31T09:24:04.905Z,53.25
2017-07-31T09:25:04.994Z,53.38
2017-07-31T09:26:05.035Z,53.64
2017-07-31T09:27:05.059Z,53.35
2017-07-31T09:28:05.084Z,54.22
2017-07-31T09:29:05.116Z,53.83
2017-07-31T09:30:05.150Z,53.86
2017-07-31T09:31:05.174Z,53.28
2017-07-31T09:32:04.898Z,53.47
2017-07-31T09:33:05.227Z,53.38
2017-07-31T09:34:05.563Z,53.18
2017-07-31T09:35:04.983Z,53.47
2017-07-31T09:36:05.322Z,53.47
2017-07-31T09:37:05.348Z,53.38
2017-07-31T09:38:05.380Z,53.86
2017-07-31T09:39:05.664Z,53.38
2017-07-31T09:40:05.126Z,53.47
2017-07-31T09:41:05.466Z,52.59
2017-07-31T09:42:05.210Z,52.59
2017-07-31T09:43:05.219Z,52.79
2017-07-31T09:44:05.549Z,52.5
2017-07-31T09:45:05.278Z,53.28
2017-07-31T09:46:05.317Z,52.4
2017-07-31T09:47:05.335Z,52.5
2017-07-31T09:48:05.690Z,52.21
2017-07-31T09:49:06.011Z,52.31
2017-07-31T09:50:05.745Z,52.21
2017-07-31T09:51:05.777Z,52.31
2017-07-31T09:52:05.492Z,52.79
2017-07-31T09:53:05.826Z,52.69
2017-07-31T09:54:05.794Z,52.5
2017-07-31T09:55:05.578Z,52.21
2017-07-31T09:56:05.608Z,52.21
2017-07-31T09:57:05.953Z,52.21
2017-07-31T09:58:05.665Z,52.11
2017-07-31T09:59:06.305Z,52.79
2017-07-31T10:00:06.039Z,52.59
2017-07-31T10:01:05.757Z,53.08
2017-07-31T10:02:05.786Z,53.38
2017-07-31T10:03:06.130Z,52.89
2017-07-31T10:04:05.844Z,52.79
2017-07-31T10:05:06.183Z,52.69
2017-07-31T10:06:05.906Z,52.43
2017-07-31T10:07:05.934Z,52.62
2017-07-31T10:08:06.274Z,52.72
2017-07-31T10:09:06.306Z,52.72
2017-07-31T10:10:06.331Z,52.53
2017-07-31T10:11:06.370Z,52.33
2017-07-31T10:12:06.089Z,52.23
2017-07-31T10:13:06.425Z,52.14
2017-07-31T10:14:06.138Z,51.84
2017-07-31T10:15:06.175Z,52.14
2017-07-31T10:16:06.511Z,52.43
2017-07-31T10:17:06.543Z,52.62
2017-07-31T10:18:06.577Z,52.92
2017-07-31T10:19:06.294Z,52.14
2017-07-31T10:20:06.323Z,52.23
2017-07-31T10:21:06.667Z,52.82
2017-07-31T10:22:06.373Z,52.53
2017-07-31T10:23:06.725Z,52.82
2017-07-31T10:24:06.752Z,52.62
2017-07-31T10:25:06.782Z,52.72
2017-07-31T10:26:06.811Z,52.43
2017-07-31T10:27:06.844Z,52.62
2017-07-31T10:28:06.873Z,52.62
2017-07-31T10:29:06.590Z,52.62
2017-07-31T10:30:06.619Z,52.53
2017-07-31T10:31:06.662Z,52.43
2017-07-31T10:32:06.993Z,52.82
2017-07-31T10:33:06.710Z,53.01
2017-07-31T10:34:07.058Z,52.82
2017-07-31T10:35:07.084Z,52.82
2017-07-31T10:36:07.111Z,52.82
2017-07-31T10:37:07.140Z,52.72
2017-07-31T10:38:07.164Z,52.23
2017-07-31T10:39:07.195Z,52.23
2017-07-31T10:40:06.915Z,52.72
2017-07-31T10:41:07.256Z,52.53
2017-07-31T10:42:07.289Z,52.62
2017-07-31T10:43:07.328Z,53.2
2017-07-31T10:44:07.346Z,53.3
2017-07-31T10:45:07.073Z,53.01
2017-07-31T10:46:07.408Z,52.72
2017-07-31T10:47:07.153Z,53.2
2017-07-31T10:48:07.161Z,53.3
2017-07-31T10:49:07.503Z,53.11
2017-07-31T10:50:07.231Z,52.53
2017-07-31T10:51:07.563Z,52.23
2017-07-31T10:52:07.588Z,52.23
2017-07-31T10:53:07.621Z,52.43
2017-07-31T10:54:07.345Z,51.94
2017-07-31T10:55:07.371Z,52.53
2017-07-31T10:56:07.405Z,51.94
2017-07-31T10:57:07.748Z,51.75
2017-07-31T10:58:07.462Z,52.14
2017-07-31T10:59:07.487Z,52.43
2017-07-31T11:00:07.836Z,52.04
2017-07-31T11:01:07.859Z,52.23
2017-07-31T11:02:07.896Z,52.23
2017-07-31T11:03:07.612Z,51.84
2017-07-31T11:04:07.642Z,51.92
2017-07-31T11:05:07.984Z,51.84
2017-07-31T11:06:08.013Z,51.84
2017-07-31T11:07:07.732Z,51.75
2017-07-31T11:08:08.077Z,52.01
2017-07-31T11:09:07.789Z,51.72
2017-07-31T11:10:08.076Z,51.92
2017-07-31T11:11:08.168Z,51.55
2017-07-31T11:12:08.198Z,51.82
2017-07-31T11:13:08.220Z,51.33
2017-07-31T11:14:08.259Z,51.45
2017-07-31T11:15:08.275Z,51.62
2017-07-31T11:16:08.313Z,51.62
2017-07-31T11:17:08.342Z,51.62
2017-07-31T11:18:08.063Z,52.01
2017-07-31T11:19:08.409Z,51.92
2017-07-31T11:20:08.453Z,51.82
2017-07-31T11:21:08.467Z,51.92
2017-07-31T11:22:08.500Z,51.53
2017-07-31T11:23:08.207Z,51.92
2017-07-31T11:24:08.248Z,51.14
2017-07-31T11:25:08.883Z,51.23
2017-07-31T11:26:08.296Z,51.53
2017-07-31T11:27:08.642Z,51.53
2017-07-31T11:28:08.678Z,52.11
2017-07-31T11:29:08.703Z,52.11
2017-07-31T11:30:08.984Z,52.01
2017-07-31T11:31:08.449Z,52.31
2017-07-31T11:32:08.482Z,52.01
2017-07-31T11:33:08.510Z,52.21
2017-07-31T11:34:08.541Z,52.31
2017-07-31T11:35:08.928Z,52.79
2017-07-31T11:36:08.601Z,51.92
2017-07-31T11:37:08.631Z,52.01
2017-07-31T11:38:08.971Z,52.79
2017-07-31T11:39:08.695Z,53.08
2017-07-31T11:40:09.443Z,52.5
2017-07-31T11:41:09.061Z,52.31
2017-07-31T11:42:08.782Z,52.21
2017-07-31T11:43:09.117Z,52.01
2017-07-31T11:44:09.143Z,51.62
2017-07-31T11:45:09.516Z,51.94
2017-07-31T11:46:08.903Z,51.84
2017-07-31T11:47:09.242Z,51.55
2017-07-31T11:48:08.959Z,51.65
2017-07-31T11:49:09.308Z,51.45
2017-07-31T11:50:09.584Z,51.26
2017-07-31T11:51:09.045Z,51.45
2017-07-31T11:52:09.398Z,51.36
2017-07-31T11:53:09.108Z,50.9
2017-07-31T11:54:09.144Z,51.39
2017-07-31T11:55:09.425Z,50.7
2017-07-31T11:56:09.512Z,51.19
2017-07-31T11:57:09.581Z,50.8
2017-07-31T11:58:09.575Z,50.6
2017-07-31T11:59:09.607Z,51.09
2017-07-31T12:00:09.621Z,50.8
2017-07-31T12:01:09.667Z,50.41
2017-07-31T12:02:09.701Z,50.8
2017-07-31T12:03:09.415Z,50.21
2017-07-31T12:04:09.760Z,50.51
2017-07-31T12:05:10.041Z,50.51
2017-07-31T12:06:09.504Z,50.6
2017-07-31T12:07:09.539Z,50.14
2017-07-31T12:08:09.595Z,49.63
2017-07-31T12:09:09.927Z,49.15
2017-07-31T12:10:09.884Z,49.05
2017-07-31T12:11:09.970Z,49.37
2017-07-31T12:12:09.999Z,49.15
2017-07-31T12:13:10.029Z,48.88
2017-07-31T12:14:09.752Z,48.97
2017-07-31T12:15:10.344Z,48.19
2017-07-31T12:16:10.125Z,49.07
2017-07-31T12:17:09.871Z,48.58
2017-07-31T12:18:10.195Z,48.71
2017-07-31T12:19:10.212Z,48.61
2017-07-31T12:20:09.940Z,48.61
2017-07-31T12:21:10.273Z,48.12
2017-07-31T12:22:10.314Z,47.75
2017-07-31T12:23:10.032Z,46.88
2017-07-31T12:24:10.372Z,47.09
2017-07-31T12:25:10.413Z,46.8
2017-07-31T12:26:10.123Z,46.7
2017-07-31T12:27:10.471Z,45.95
2017-07-31T12:28:10.183Z,45.58
2017-07-31T12:29:10.221Z,45.29
2017-07-31T12:30:10.254Z,44.9
2017-07-31T12:31:10.596Z,44.7
2017-07-31T12:32:10.632Z,44.43
2017-07-31T12:33:10.368Z,44.53
2017-07-31T12:34:10.380Z,44.16
2017-07-31T12:35:10.730Z,43.77
2017-07-31T12:36:10.763Z,43.67
2017-07-31T12:37:10.793Z,43.18
2017-07-31T12:38:10.514Z,44.06
2017-07-31T12:39:10.857Z,43.2
2017-07-31T12:40:10.602Z,43.01
2017-07-31T12:41:10.921Z,43.69
2017-07-31T12:42:10.970Z,43.89
2017-07-31T12:43:10.997Z,43.69
2017-07-31T12:44:11.018Z,43.4
2017-07-31T12:45:11.091Z,43.4
2017-07-31T12:46:11.105Z,43.69
2017-07-31T12:47:11.126Z,43.57
2017-07-31T12:48:11.161Z,43.87
2017-07-31T12:49:11.193Z,44.16
2017-07-31T12:50:11.218Z,44.84
2017-07-31T12:51:11.251Z,45.02
2017-07-31T12:52:10.973Z,44.73
2017-07-31T12:53:11.320Z,44.63
2017-07-31T12:54:11.383Z,44.73
2017-07-31T12:55:11.066Z,45.02